createdAt,value
2024-04-23T00:01:35.203Z,85881.31
2024-04-23T00:04:02.458Z,85852.63
2024-04-23T00:06:29.639Z,85873.91
2024-04-23T00:08:56.900Z,85853.25
2024-04-23T00:11:24.183Z,85810.66
2024-04-23T00:13:51.443Z,85860.09
2024-04-23T00:16:18.771Z,85811.34
2024-04-23T00:18:46.235Z,85794.84
2024-04-23T00:21:13.645Z,85818.47
2024-04-23T00:23:40.919Z,85845.97
2024-04-23T00:26:08.222Z,85784.06
2024-04-23T00:28:35.446Z,85840.34
2024-04-23T00:31:02.709Z,85729.13
2024-04-23T00:33:30.160Z,85840.25
2024-04-23T00:35:57.482Z,85774.41
2024-04-23T00:38:24.705Z,85777.72
2024-04-23T00:40:52.039Z,85826.28
2024-04-23T00:43:19.465Z,85750.84
2024-04-23T00:45:49.535Z,85781.03
2024-04-23T00:48:19.998Z,85827.69
2024-04-23T00:50:48.365Z,85781.06
2024-04-23T00:53:16.233Z,85827.66
2024-04-23T00:55:44.336Z,85785.00
2024-04-23T00:58:12.170Z,85757.41
2024-04-23T01:00:39.482Z,85794.44
2024-04-23T01:03:07.024Z,85762.69
2024-04-23T01:05:34.424Z,85824.44
2024-04-23T01:08:01.736Z,85757.28
2024-04-23T01:10:29.262Z,85759.72
2024-04-23T01:12:56.637Z,85788.56
2024-04-23T01:15:27.440Z,85777.44
2024-04-23T01:17:58.688Z,85717.34
2024-04-23T01:20:26.142Z,85783.00
2024-04-23T01:23:15.388Z,85802.44
2024-04-23T01:25:45.517Z,85794.34
2024-04-23T01:28:17.581Z,85776.28
2024-04-23T01:30:46.290Z,85755.69
2024-04-23T01:33:14.094Z,85828.41
2024-04-23T01:35:42.369Z,85796.22
2024-04-23T01:38:11.437Z,85822.84
2024-04-23T01:40:42.379Z,85838.00
2024-04-23T01:43:09.816Z,85826.94
2024-04-23T01:45:37.688Z,85747.47
2024-04-23T01:48:06.336Z,85804.84
2024-04-23T01:50:33.753Z,85782.69
2024-04-23T01:53:01.124Z,85825.72
2024-04-23T01:55:28.658Z,85813.44
2024-04-23T01:57:55.978Z,85816.16
2024-04-23T02:00:25.422Z,85816.13
2024-04-23T02:02:54.881Z,85827.16
2024-04-23T02:05:22.696Z,85813.38
2024-04-23T02:07:50.713Z,85805.72
2024-04-23T02:10:20.618Z,85789.75
2024-04-23T02:12:47.970Z,85820.66
2024-04-23T02:15:15.321Z,85823.38
2024-04-23T02:17:43.020Z,85769.69
2024-04-23T02:20:11.999Z,85806.56
2024-04-23T02:22:39.429Z,85778.69
2024-04-23T02:25:06.819Z,85800.63
2024-04-23T02:27:34.118Z,85762.38
2024-04-23T02:30:02.665Z,85772.44
2024-04-23T02:32:30.267Z,85716.88
2024-04-23T02:34:57.841Z,85698.88
2024-04-23T02:37:25.447Z,85777.00
2024-04-23T02:39:52.928Z,85771.56
2024-04-23T02:42:20.339Z,85748.25
2024-04-23T02:44:47.794Z,85734.66
2024-04-23T02:47:15.251Z,85770.22
2024-04-23T02:49:42.657Z,85769.59
2024-04-23T02:52:10.488Z,85749.88
2024-04-23T02:54:37.848Z,85775.78
2024-04-23T02:57:05.361Z,85770.81
2024-04-23T02:59:32.773Z,85715.91
2024-04-23T03:02:08.096Z,85756.28
2024-04-23T03:04:35.561Z,85711.03
2024-04-23T03:07:03.241Z,85731.44
2024-04-23T03:09:30.622Z,85697.34
2024-04-23T03:11:58.226Z,85699.28
2024-04-23T03:14:25.647Z,85702.69
2024-04-23T03:16:53.212Z,85736.41
2024-04-23T03:19:20.673Z,85726.78
2024-04-23T03:21:52.349Z,85693.25
2024-04-23T03:24:20.017Z,85704.16
2024-04-23T03:26:47.969Z,85696.03
2024-04-23T03:29:15.455Z,85704.28
2024-04-23T03:32:03.856Z,85651.84
2024-04-23T03:34:32.478Z,85746.25
2024-04-23T03:37:00.481Z,85785.47
2024-04-23T03:39:28.250Z,85747.59
2024-04-23T03:41:59.965Z,85783.81
2024-04-23T03:44:28.442Z,85762.59
2024-04-23T03:46:57.551Z,85725.06
2024-04-23T03:49:25.192Z,85778.50
2024-04-23T03:51:52.628Z,85792.16
2024-04-23T03:54:19.916Z,85726.34
2024-04-23T03:56:47.232Z,85787.91
2024-04-23T03:59:17.088Z,85712.63
2024-04-23T04:01:44.563Z,85744.09
2024-04-23T04:04:50.700Z,85757.06
2024-04-23T04:07:17.855Z,85788.13
2024-04-23T04:09:45.108Z,85791.72
2024-04-23T04:12:12.479Z,85732.84
2024-04-23T04:14:39.784Z,85788.38
2024-04-23T04:17:07.209Z,85793.91
2024-04-23T04:19:34.689Z,85782.84
2024-04-23T04:22:02.230Z,85761.66
2024-04-23T04:24:29.744Z,85799.41
2024-04-23T04:26:57.254Z,85806.97
2024-04-23T04:29:24.708Z,85821.56
2024-04-23T04:31:52.215Z,85825.69
2024-04-23T04:34:21.718Z,85692.78
2024-04-23T04:36:49.391Z,85829.19
2024-04-23T04:39:16.818Z,85807.28
2024-04-23T04:41:44.264Z,85821.66
2024-04-23T04:44:11.624Z,85822.34
2024-04-23T04:46:39.169Z,85799.66
2024-04-23T04:49:06.599Z,85809.13
2024-04-23T04:51:33.937Z,85796.13
2024-04-23T04:54:01.281Z,85817.50
2024-04-23T04:56:29.511Z,85814.06
2024-04-23T04:58:56.948Z,85823.72
2024-04-23T05:01:24.291Z,85835.34
2024-04-23T05:03:51.690Z,85828.47
2024-04-23T05:06:19.030Z,85805.13
2024-04-23T05:08:46.416Z,85838.13
2024-04-23T05:11:13.733Z,85792.09
2024-04-23T05:13:41.159Z,85792.06
2024-04-23T05:16:08.687Z,85768.22
2024-04-23T05:18:37.482Z,85787.47
2024-04-23T05:21:08.418Z,85803.31
2024-04-23T05:23:35.699Z,85836.78
2024-04-23T05:26:03.007Z,85794.81
2024-04-23T05:28:30.281Z,85811.09
2024-04-23T05:31:15.962Z,85817.19
2024-04-23T05:33:43.368Z,85818.66
2024-04-23T05:36:10.685Z,85817.31
2024-04-23T05:38:38.242Z,85796.16
2024-04-23T05:41:05.873Z,85792.88
2024-04-23T05:43:33.119Z,85824.28
2024-04-23T05:46:00.395Z,85817.41
2024-04-23T05:49:05.160Z,85813.81
2024-04-23T05:52:30.504Z,85805.44
2024-04-23T05:55:34.559Z,85768.28
2024-04-23T05:58:02.458Z,85800.47
2024-04-23T06:00:30.136Z,85772.91
2024-04-23T06:02:57.686Z,85752.22
2024-04-23T06:05:26.468Z,85734.94
2024-04-23T06:07:55.425Z,85768.34
2024-04-23T06:10:23.256Z,85723.09
2024-04-23T06:12:51.452Z,85731.25
2024-04-23T06:15:19.466Z,85741.50
2024-04-23T06:17:48.802Z,85746.25
2024-04-23T06:20:16.689Z,85767.38
2024-04-23T06:22:50.228Z,85774.09
2024-04-23T06:25:18.004Z,85776.19
2024-04-23T06:27:45.351Z,85733.72
2024-04-23T06:30:18.707Z,85781.75
2024-04-23T06:32:46.297Z,85781.84
2024-04-23T06:35:15.612Z,85757.91
2024-04-23T06:37:43.328Z,85778.22
2024-04-23T06:40:11.219Z,85780.88
2024-04-23T06:42:39.725Z,85791.19
2024-04-23T06:45:07.508Z,85795.25
2024-04-23T06:47:35.491Z,85762.16
2024-04-23T06:50:03.894Z,85755.22
2024-04-23T06:52:31.644Z,85769.47
2024-04-23T06:54:59.643Z,85748.31
2024-04-23T06:57:27.702Z,85769.47
2024-04-23T06:59:55.136Z,85794.78
2024-04-23T07:02:22.732Z,85776.00
2024-04-23T07:04:50.249Z,85719.34
2024-04-23T07:07:17.746Z,85757.31
2024-04-23T07:09:45.023Z,85754.72
2024-04-23T07:12:12.279Z,85681.31
2024-04-23T07:14:39.469Z,85716.78
2024-04-23T07:17:06.823Z,85781.72
2024-04-23T07:19:34.294Z,85774.91
2024-04-23T07:22:01.789Z,85721.28
2024-04-23T07:24:29.055Z,85739.19
2024-04-23T07:26:56.410Z,85743.78
2024-04-23T07:29:23.886Z,85714.88
2024-04-23T07:31:51.272Z,85652.38
2024-04-23T07:34:18.619Z,85735.19
2024-04-23T07:36:46.978Z,85698.09
2024-04-23T07:39:15.181Z,85700.53
2024-04-23T07:41:42.836Z,85731.31
2024-04-23T07:44:10.535Z,85708.03
2024-04-23T07:46:38.259Z,85715.38
2024-04-23T07:49:05.774Z,85722.69
2024-04-23T07:51:34.231Z,85703.66
2024-04-23T07:54:01.801Z,85735.97
2024-04-23T07:56:29.250Z,85735.88
2024-04-23T07:58:56.760Z,85702.22
2024-04-23T08:01:24.288Z,85695.28
2024-04-23T08:03:51.700Z,85713.03
2024-04-23T08:06:19.066Z,85704.81
2024-04-23T08:08:46.418Z,85671.59
2024-04-23T08:11:14.175Z,85642.81
2024-04-23T08:13:41.726Z,85681.34
2024-04-23T08:16:09.149Z,85688.00
2024-04-23T08:18:36.723Z,85699.06
2024-04-23T08:21:07.359Z,85702.88
2024-04-23T08:23:35.223Z,85656.00
2024-04-23T08:26:10.900Z,85681.53
2024-04-23T08:28:38.537Z,85690.44
2024-04-23T08:31:06.114Z,85641.31
2024-04-23T08:33:35.730Z,85682.22
2024-04-23T08:36:03.222Z,85614.09
2024-04-23T08:38:31.176Z,85668.88
2024-04-23T08:41:01.818Z,85675.63
2024-04-23T08:43:37.130Z,85725.47
2024-04-23T08:46:05.272Z,85714.34
2024-04-23T08:48:34.502Z,85606.03
2024-04-23T08:51:04.572Z,85650.31
2024-04-23T08:53:34.269Z,85681.78
2024-04-23T08:56:07.365Z,85632.53
2024-04-23T08:58:37.626Z,85629.06
2024-04-23T09:01:06.619Z,85623.75
2024-04-23T09:03:43.961Z,85635.75
2024-04-23T09:06:12.014Z,85594.47
2024-04-23T09:08:42.579Z,85623.09
2024-04-23T09:11:10.448Z,85642.03
2024-04-23T09:13:38.682Z,85636.25
2024-04-23T09:16:06.377Z,85652.63
2024-04-23T09:18:34.238Z,85649.88
2024-04-23T09:21:04.003Z,85660.53
2024-04-23T09:23:35.245Z,85630.84
2024-04-23T09:26:05.172Z,85656.19
2024-04-23T09:28:36.709Z,85654.16
2024-04-23T09:31:04.880Z,85625.72
2024-04-23T09:33:35.715Z,85605.56
2024-04-23T09:36:15.177Z,85627.84
2024-04-23T09:38:42.853Z,85599.47
2024-04-23T09:41:11.787Z,85615.00
2024-04-23T09:43:39.541Z,85612.72
2024-04-23T09:46:10.077Z,85615.78
2024-04-23T09:48:41.163Z,85617.53
2024-04-23T09:51:10.641Z,85636.00
2024-04-23T09:53:39.936Z,85648.41
2024-04-23T09:56:11.313Z,85644.81
2024-04-23T09:58:38.682Z,85648.94
2024-04-23T10:01:06.689Z,85589.19
2024-04-23T10:03:36.974Z,85656.16
2024-04-23T10:06:14.180Z,85620.13
2024-04-23T10:08:50.054Z,85588.16
2024-04-23T10:12:08.200Z,85586.47
2024-04-23T10:14:49.133Z,85592.69
2024-04-23T10:17:34.092Z,85602.56
2024-04-23T10:20:03.634Z,85602.22
2024-04-23T10:22:31.434Z,85590.72
2024-04-23T10:24:59.037Z,85607.84
2024-04-23T10:27:28.138Z,85594.16
2024-04-23T10:29:56.584Z,85558.09
2024-04-23T10:32:25.515Z,85569.66
2024-04-23T10:34:56.732Z,85583.00
2024-04-23T10:37:25.772Z,85555.19
2024-04-23T10:39:54.107Z,85544.97
2024-04-23T10:42:21.512Z,85547.75
2024-04-23T10:44:49.276Z,85592.22
2024-04-23T10:47:16.717Z,85562.28
2024-04-23T10:49:44.020Z,85565.66
2024-04-23T10:52:11.342Z,85592.91
2024-04-23T10:54:39.016Z,85593.41
2024-04-23T10:57:11.177Z,85561.41
2024-04-23T10:59:39.468Z,85556.38
2024-04-23T11:02:12.004Z,85564.84
2024-04-23T11:04:46.455Z,85600.81
2024-04-23T11:07:25.772Z,85588.88
2024-04-23T11:10:02.217Z,85609.03
2024-04-23T11:12:31.478Z,85595.50
2024-04-23T11:15:00.646Z,85566.56
2024-04-23T11:17:30.229Z,85532.19
2024-04-23T11:19:58.191Z,85544.66
2024-04-23T11:22:39.089Z,85547.06
2024-04-23T11:25:19.022Z,85534.69
2024-04-23T11:27:46.609Z,85489.38
2024-04-23T11:30:15.505Z,85529.28
2024-04-23T11:32:43.171Z,85517.72
2024-04-23T11:35:11.866Z,85498.59
2024-04-23T11:37:40.339Z,85524.03
2024-04-23T11:40:08.283Z,85544.41
2024-04-23T11:42:35.676Z,85526.28
2024-04-23T11:45:06.828Z,85515.63
2024-04-23T11:47:37.384Z,85501.41
2024-04-23T11:50:07.683Z,85504.25
2024-04-23T11:52:36.362Z,85507.69
2024-04-23T11:55:10.478Z,85525.56
2024-04-23T11:57:40.273Z,85535.03
2024-04-23T12:00:09.060Z,85548.31
2024-04-23T12:02:36.529Z,85552.63
2024-04-23T12:05:08.955Z,85568.66
2024-04-23T12:07:37.081Z,85559.00
2024-04-23T12:10:07.560Z,85564.16
2024-04-23T12:12:38.288Z,85547.47
2024-04-23T12:15:07.567Z,85550.50
2024-04-23T12:17:42.178Z,85530.47
2024-04-23T12:20:13.285Z,85535.06
2024-04-23T12:22:46.658Z,85507.31
2024-04-23T12:25:16.440Z,85522.41
2024-04-23T12:27:48.164Z,85416.34
2024-04-23T12:30:20.794Z,85432.31
2024-04-23T12:32:51.708Z,85475.28
2024-04-23T12:35:22.785Z,85483.13
2024-04-23T12:37:59.001Z,85480.16
2024-04-23T12:40:27.768Z,85446.22
2024-04-23T12:42:58.094Z,85469.06
2024-04-23T12:45:25.755Z,85451.75
2024-04-23T12:47:58.197Z,85466.09
2024-04-23T12:50:25.859Z,85437.63
2024-04-23T12:52:53.178Z,85482.88
2024-04-23T12:55:20.619Z,85469.16
2024-04-23T12:57:48.153Z,85461.56
2024-04-23T13:00:16.444Z,85444.28
2024-04-23T13:02:43.956Z,85494.78
2024-04-23T13:05:11.412Z,85453.19
2024-04-23T13:07:38.861Z,85496.03
2024-04-23T13:10:06.574Z,85473.75
2024-04-23T13:12:34.049Z,85439.19
2024-04-23T13:15:01.557Z,85394.88
2024-04-23T13:17:28.979Z,85440.56
2024-04-23T13:20:00.450Z,85422.88
2024-04-23T13:22:29.032Z,85452.81
2024-04-23T13:24:56.491Z,85472.72
2024-04-23T13:27:23.830Z,85459.00
2024-04-23T13:29:51.826Z,85458.22
2024-04-23T13:32:21.698Z,85474.41
2024-04-23T13:34:49.042Z,85458.16
2024-04-23T13:37:16.432Z,85467.81
2024-04-23T13:39:43.738Z,85458.75
2024-04-23T13:42:11.055Z,85443.31
2024-04-23T13:44:38.347Z,85438.41
2024-04-23T13:47:05.996Z,85436.25
2024-04-23T13:49:36.576Z,85439.81
2024-04-23T13:52:04.632Z,85400.34
2024-04-23T13:54:32.044Z,85434.03
2024-04-23T13:56:59.363Z,85412.41
2024-04-23T13:59:26.888Z,85446.16
2024-04-23T14:01:54.531Z,85451.75
2024-04-23T14:04:22.019Z,85442.34
2024-04-23T14:06:51.778Z,85426.13
2024-04-23T14:09:19.121Z,85381.63
2024-04-23T14:11:47.239Z,85419.84
2024-04-23T14:14:15.028Z,85396.63
2024-04-23T14:16:42.523Z,85450.72
2024-04-23T14:19:10.323Z,85428.06
2024-04-23T14:21:37.718Z,85482.28
2024-04-23T14:24:05.212Z,85481.84
2024-04-23T14:26:32.577Z,85490.69
2024-04-23T14:28:59.956Z,85497.16
2024-04-23T14:31:27.465Z,85455.34
2024-04-23T14:33:54.767Z,85452.88
2024-04-23T14:36:22.080Z,85479.81
2024-04-23T14:38:49.339Z,85446.72
2024-04-23T14:41:16.705Z,85402.72
2024-04-23T14:43:44.216Z,85395.34
2024-04-23T14:46:13.569Z,85292.38
2024-04-23T14:48:41.867Z,85296.34
2024-04-23T14:51:10.570Z,85324.81
2024-04-23T14:53:38.118Z,85325.53
2024-04-23T14:56:07.375Z,85324.94
2024-04-23T14:58:35.928Z,85312.63
2024-04-23T15:01:11.017Z,85206.16
2024-04-23T15:03:38.635Z,85264.16
2024-04-23T15:06:09.750Z,85279.81
2024-04-23T15:08:39.055Z,85296.44
2024-04-23T15:11:08.587Z,85294.97
2024-04-23T15:13:36.987Z,85308.75
2024-04-23T15:16:08.702Z,85314.13
2024-04-23T15:18:39.709Z,85312.16
2024-04-23T15:21:12.118Z,85327.97
2024-04-23T15:23:40.007Z,85302.84
2024-04-23T15:26:07.955Z,85363.28
2024-04-23T15:28:39.375Z,85343.56
2024-04-23T15:31:08.610Z,85320.56
2024-04-23T15:33:40.387Z,85320.47
2024-04-23T15:36:13.067Z,85346.44
2024-04-23T15:38:49.368Z,85323.03
2024-04-23T15:41:18.003Z,85271.91
2024-04-23T15:43:48.870Z,85276.25
2024-04-23T15:46:16.306Z,85295.34
2024-04-23T15:48:43.969Z,85306.16
2024-04-23T15:51:11.631Z,85280.81
2024-04-23T15:53:39.104Z,85311.53
2024-04-23T15:56:07.514Z,85313.16
2024-04-23T15:58:35.159Z,85277.69
2024-04-23T16:01:07.243Z,85310.97
2024-04-23T16:03:36.276Z,85297.91
2024-04-23T16:06:04.820Z,85287.28
2024-04-23T16:08:32.912Z,85286.16
2024-04-23T16:11:10.766Z,85275.72
2024-04-23T16:13:39.661Z,85324.25
2024-04-23T16:16:07.208Z,85326.44
2024-04-23T16:18:38.079Z,85349.22
2024-04-23T16:21:12.538Z,85355.09
2024-04-23T16:23:40.230Z,85399.81
2024-04-23T16:26:08.563Z,85380.69
2024-04-23T16:28:36.368Z,85338.34
2024-04-23T16:31:04.831Z,85387.72
2024-04-23T16:33:35.643Z,85407.25
2024-04-23T16:36:08.329Z,85345.06
2024-04-23T16:38:39.316Z,85300.19
2024-04-23T16:41:10.278Z,85304.84
2024-04-23T16:43:40.820Z,85262.69
2024-04-23T16:46:14.727Z,85183.84
2024-04-23T16:48:42.337Z,85162.81
2024-04-23T16:51:13.598Z,85181.38
2024-04-23T16:53:41.239Z,85179.44
2024-04-23T16:56:11.690Z,85139.13
2024-04-23T16:58:39.184Z,85171.22
2024-04-23T17:01:10.497Z,85113.47
2024-04-23T17:03:39.784Z,85184.34
2024-04-23T17:06:07.779Z,85144.25
2024-04-23T17:08:35.337Z,85183.44
2024-04-23T17:11:04.234Z,85001.13
2024-04-23T17:13:33.725Z,85145.16
2024-04-23T17:16:12.767Z,85171.16
2024-04-23T17:18:40.339Z,85197.44
2024-04-23T17:21:14.153Z,85171.19
2024-04-23T17:23:41.771Z,85145.66
2024-04-23T17:26:09.252Z,85098.06
2024-04-23T17:28:36.737Z,85104.19
2024-04-23T17:31:05.285Z,85096.50
2024-04-23T17:33:33.206Z,85172.34
2024-04-23T17:36:01.330Z,85168.03
2024-04-23T17:38:28.843Z,85151.81
2024-04-23T17:40:56.426Z,85176.53
2024-04-23T17:43:24.371Z,85210.91
2024-04-23T17:45:52.065Z,85182.88
2024-04-23T17:48:19.689Z,85217.75
2024-04-23T17:50:47.236Z,85195.69
2024-04-23T17:53:16.677Z,85190.00
2024-04-23T17:55:46.132Z,85169.41
2024-04-23T17:58:17.076Z,85173.25
2024-04-23T18:00:44.730Z,85167.66
2024-04-23T18:03:13.636Z,85120.00
2024-04-23T18:05:42.936Z,85143.53
2024-04-23T18:08:12.789Z,85182.47
2024-04-23T18:10:43.136Z,85155.19
2024-04-23T18:13:13.893Z,85151.75
2024-04-23T18:15:47.032Z,85177.47
2024-04-23T18:18:19.954Z,85157.69
2024-04-23T18:20:49.281Z,85189.28
2024-04-23T18:23:16.999Z,85150.84
2024-04-23T18:25:52.537Z,85147.34
2024-04-23T18:28:22.495Z,85145.03
2024-04-23T18:30:53.103Z,85157.09
2024-04-23T18:33:28.259Z,85118.81
2024-04-23T18:35:57.702Z,85132.22
2024-04-23T18:38:25.360Z,85117.63
2024-04-23T18:40:53.144Z,85094.19
2024-04-23T18:43:25.511Z,85116.84
2024-04-23T18:45:53.174Z,85109.94
2024-04-23T18:48:32.313Z,85130.53
2024-04-23T18:51:06.777Z,85138.78
2024-04-23T18:53:36.629Z,85091.44
2024-04-23T18:56:12.092Z,85135.16
2024-04-23T18:58:43.171Z,85149.06
2024-04-23T19:01:21.545Z,85160.91
2024-04-23T19:03:49.287Z,85130.09
2024-04-23T19:06:24.594Z,85157.59
2024-04-23T19:08:54.283Z,85144.22
2024-04-23T19:11:27.500Z,85157.50
2024-04-23T19:14:07.888Z,85117.38
2024-04-23T19:16:44.690Z,85140.94
2024-04-23T19:19:13.451Z,85131.28
2024-04-23T19:21:41.212Z,85110.59
2024-04-23T19:24:08.982Z,85132.34
2024-04-23T19:26:36.562Z,85139.25
2024-04-23T19:29:06.673Z,85127.16
2024-04-23T19:31:34.292Z,85125.66
2024-04-23T19:34:05.091Z,85126.13
2024-04-23T19:36:32.845Z,85123.03
2024-04-23T19:39:01.626Z,85136.53
2024-04-23T19:41:31.980Z,85088.78
2024-04-23T19:44:01.049Z,85125.88
2024-04-23T19:46:29.540Z,85126.59
2024-04-23T19:49:03.753Z,85103.72
2024-04-23T19:51:37.488Z,85132.25
2024-04-23T19:54:05.451Z,85134.84
2024-04-23T19:56:56.252Z,85097.72
2024-04-23T19:59:25.280Z,85113.66
2024-04-23T20:01:53.030Z,85113.59
2024-04-23T20:04:20.855Z,85115.81
2024-04-23T20:06:50.671Z,85096.75
2024-04-23T20:09:27.082Z,85089.97
2024-04-23T20:11:54.904Z,85089.97
2024-04-23T20:14:22.686Z,85078.44
2024-04-23T20:16:50.313Z,85060.63
2024-04-23T20:19:17.668Z,85088.97
2024-04-23T20:21:45.047Z,85052.78
2024-04-23T20:24:12.384Z,85075.59
2024-04-23T20:26:39.737Z,85066.63
2024-04-23T20:29:09.059Z,85080.97
2024-04-23T20:31:36.410Z,85042.16
2024-04-23T20:34:03.727Z,85053.03
2024-04-23T20:36:30.964Z,85059.72
2024-04-23T20:38:58.455Z,85019.56
2024-04-23T20:41:25.868Z,84965.78
2024-04-23T20:43:53.386Z,85059.31
2024-04-23T20:46:22.840Z,85041.84
2024-04-23T20:48:50.356Z,85047.63
2024-04-23T20:51:17.735Z,85021.72
2024-04-23T20:53:45.596Z,85008.88
2024-04-23T20:56:12.997Z,85000.56
2024-04-23T20:58:40.272Z,85024.53
2024-04-23T21:01:09.646Z,84954.34
2024-04-23T21:03:37.781Z,85047.63
2024-04-23T21:06:13.055Z,85032.72
2024-04-23T21:08:41.334Z,85041.28
2024-04-23T21:11:16.545Z,84991.97
2024-04-23T21:13:45.446Z,85017.97
2024-04-23T21:16:16.327Z,85024.19
2024-04-23T21:18:45.612Z,85034.09
2024-04-23T21:21:14.987Z,85018.22
2024-04-23T21:23:42.602Z,85023.41
2024-04-23T21:26:10.384Z,85048.69
2024-04-23T21:28:38.363Z,85008.31
2024-04-23T21:31:05.929Z,85066.25
2024-04-23T21:33:33.880Z,85040.97
2024-04-23T21:36:05.399Z,85062.66
2024-04-23T21:38:33.295Z,85080.63
2024-04-23T21:41:07.861Z,85058.91
2024-04-23T21:43:36.400Z,85057.59
2024-04-23T21:46:07.322Z,85047.50
2024-04-23T21:48:35.084Z,85036.75
2024-04-23T21:51:10.135Z,84989.25
2024-04-23T21:53:37.747Z,85051.72
2024-04-23T21:56:06.379Z,85014.69
2024-04-23T21:58:38.402Z,85043.16
2024-04-23T22:01:18.502Z,85036.94
2024-04-23T22:03:47.152Z,84997.31
2024-04-23T22:06:15.361Z,85027.53
2024-04-23T22:08:42.703Z,85013.03
2024-04-23T22:11:10.433Z,85000.53
2024-04-23T22:13:37.924Z,84999.19
2024-04-23T22:16:05.639Z,84997.91
2024-04-23T22:18:33.013Z,84999.56
2024-04-23T22:21:00.340Z,84990.69
2024-04-23T22:23:27.819Z,84998.03
2024-04-23T22:25:55.269Z,85016.34
2024-04-23T22:28:22.536Z,85000.06
2024-04-23T22:30:49.908Z,85010.13
2024-04-23T22:33:17.324Z,85009.44
2024-04-23T22:35:44.667Z,84991.44
2024-04-23T22:38:12.128Z,84995.63
2024-04-23T22:40:39.485Z,84997.56
2024-04-23T22:43:06.749Z,84982.28
2024-04-23T22:45:34.076Z,84962.72
2024-04-23T22:48:01.618Z,84957.97
2024-04-23T22:50:29.126Z,84943.31
2024-04-23T22:52:56.639Z,84959.47
2024-04-23T22:55:23.991Z,84937.31
2024-04-23T22:57:51.316Z,84938.78
2024-04-23T23:00:18.745Z,84947.66
2024-04-23T23:02:46.209Z,84913.56
2024-04-23T23:05:13.612Z,84948.69
2024-04-23T23:07:41.524Z,84967.00
2024-04-23T23:10:09.179Z,84980.13
2024-04-23T23:12:36.541Z,84899.88
2024-04-23T23:15:06.245Z,84967.78
2024-04-23T23:17:33.729Z,84884.28
2024-04-23T23:20:01.219Z,84938.47
2024-04-23T23:22:28.616Z,84928.00
2024-04-23T23:24:55.977Z,84945.41
2024-04-23T23:27:23.280Z,84951.66
2024-04-23T23:29:50.637Z,84947.56
2024-04-23T23:32:18.012Z,84879.06
2024-04-23T23:34:45.581Z,84957.41
2024-04-23T23:37:13.011Z,84923.25
2024-04-23T23:39:40.365Z,84909.16
2024-04-23T23:42:07.941Z,84925.16
2024-04-23T23:44:35.318Z,84905.78
2024-04-23T23:47:02.718Z,84942.09
2024-04-23T23:49:30.115Z,84907.81
2024-04-23T23:51:57.582Z,84946.78
2024-04-23T23:54:25.080Z,84897.94
2024-04-23T23:56:54.801Z,84936.09
2024-04-23T23:59:22.157Z,84896.34
